Time;durP1;ratioP1;P1;durP2;ratioP2;P2;SDS_P1;SDS_P2;PMS_P1;PMS_P2;Temp;Humidity;BMP_temperature;BMP_pressure;BME280_temperature;BME280_humidity;BME280_pressure;Samples;Min_cycle;Max_cycle;Signal;HPM_P1;HPM_P2
2022/04/28 00:00:09;;;;;;;12.18;7.80;;;;;;;8.20;81.13;101889.09;682257;28;1282;-79
2022/04/28 00:00:30;;;;;;;11.32;7.75;;;;;;;8.19;81.90;101888.19;681750;28;1885;-78
2022/04/28 00:00:51;;;;;;;11.00;7.80;;;;;;;8.21;81.81;101897.78;678121;28;1365;-78
2022/04/28 00:01:11;;;;;;;11.18;7.88;;;;;;;8.19;82.38;101896.00;679952;28;1677;-78
2022/04/28 00:01:32;;;;;;;11.83;8.10;;;;;;;8.18;82.70;101890.78;681272;28;1791;-79
2022/04/28 00:01:52;;;;;;;11.60;7.87;;;;;;;8.16;82.27;101890.72;677404;29;1533;-79
2022/04/28 00:02:12;;;;;;;11.05;7.57;;;;;;;8.12;82.56;101896.72;676785;29;1515;-78
2022/04/28 00:02:33;;;;;;;11.10;7.67;;;;;;;8.12;82.12;101895.84;675889;29;1506;-79
2022/04/28 00:02:54;;;;;;;12.48;7.95;;;;;;;8.11;81.40;101894.06;676182;29;4555;-79
2022/04/28 00:03:15;;;;;;;10.55;7.32;;;;;;;8.09;81.67;101895.78;680610;29;1665;-79
2022/04/28 00:03:35;;;;;;;11.60;7.82;;;;;;;8.07;81.40;101895.72;679448;28;1174;-78
2022/04/28 00:03:55;;;;;;;12.83;7.97;;;;;;;8.04;82.00;101895.63;684673;28;1196;-78
2022/04/28 00:04:18;;;;;;;12.10;7.83;;;;;;;8.03;81.93;101899.09;685435;28;1539;-79
2022/04/28 00:04:39;;;;;;;10.38;7.47;;;;;;;7.99;82.76;101894.66;684364;28;1336;-79
2022/04/28 00:05:00;;;;;;;10.90;7.63;;;;;;;7.98;82.41;101887.69;682585;28;1493;-79
2022/04/28 00:05:21;;;;;;;12.75;8.00;;;;;;;7.97;82.61;101891.13;682826;28;1598;-78
2022/04/28 00:05:42;;;;;;;11.55;7.60;;;;;;;7.96;82.25;101899.75;677014;29;4330;-78
2022/04/28 00:06:02;;;;;;;12.97;7.47;;;;;;;7.95;82.67;101892.81;676709;29;1790;-78
2022/04/28 00:06:23;;;;;;;14.73;8.10;;;;;;;7.94;81.85;101896.25;677116;29;1878;-78
2022/04/28 00:06:43;;;;;;;12.60;8.00;;;;;;;7.95;82.04;101898.03;678508;29;1731;-79
2022/04/28 00:07:04;;;;;;;12.40;8.18;;;;;;;7.91;83.36;101901.38;680113;29;1677;-78
2022/04/28 00:07:24;;;;;;;11.77;8.30;;;;;;;7.90;84.17;101904.81;680441;28;1450;-78
2022/04/28 00:07:46;;;;;;;10.90;7.80;;;;;;;7.89;84.20;101890.03;683117;28;1332;-78
2022/04/28 00:08:08;;;;;;;11.63;8.27;;;;;;;7.91;85.23;101899.66;684416;28;1843;-78
2022/04/28 00:08:28;;;;;;;11.63;8.00;;;;;;;7.92;84.12;101900.53;683990;28;2025;-79
2022/04/28 00:08:48;;;;;;;12.30;8.23;;;;;;;7.90;84.17;101897.00;681759;28;4741;-79
2022/04/28 00:09:09;;;;;;;12.93;8.43;;;;;;;7.90;84.18;101899.63;683305;28;1580;-78
2022/04/28 00:09:30;;;;;;;10.93;8.23;;;;;;;7.88;83.78;101899.59;685770;28;1363;-79
2022/04/28 00:09:50;;;;;;;11.65;8.00;;;;;;;7.89;83.49;101895.25;682474;28;1446;-78
2022/04/28 00:10:11;;;;;;;13.07;8.00;;;;;;;7.87;85.62;101904.75;683128;28;1825;-78
2022/04/28 00:10:32;;;;;;;12.13;8.23;;;;;;;7.84;86.49;101906.41;685371;28;1992;-78
2022/04/28 00:10:53;;;;;;;12.15;8.63;;;;;;;7.84;86.37;101908.16;684173;28;1701;-79
2022/04/28 00:11:13;;;;;;;12.57;8.50;;;;;;;7.84;85.91;101906.41;685126;28;1014;-78
2022/04/28 00:11:34;;;;;;;11.93;8.27;;;;;;;7.80;86.45;101914.13;682592;28;1267;-78
2022/04/28 00:11:54;;;;;;;12.93;8.13;;;;;;;7.79;86.22;101915.81;678293;28;4320;-79
2022/04/28 00:12:14;;;;;;;11.23;7.70;;;;;;;7.79;86.38;101901.94;681139;28;1699;-79
2022/04/28 00:12:35;;;;;;;11.97;7.87;;;;;;;7.77;85.26;101907.09;679541;28;1259;-79
2022/04/28 00:12:56;;;;;;;13.52;8.20;;;;;;;7.76;85.15;101901.84;682535;28;1368;-80
2022/04/28 00:13:18;;;;;;;11.95;7.93;;;;;;;7.76;85.48;101905.34;682128;28;1158;-79
2022/04/28 00:13:38;;;;;;;12.27;8.10;;;;;;;7.77;85.72;101904.50;682164;28;1304;-78
2022/04/28 00:13:59;;;;;;;11.40;8.40;;;;;;;7.76;84.68;101902.72;672909;29;1401;-78
2022/04/28 00:14:20;;;;;;;11.73;8.13;;;;;;;7.77;84.92;101908.84;674438;29;1480;-79
2022/04/28 00:14:42;;;;;;;11.90;7.95;;;;;;;7.76;85.25;101907.94;674725;29;4350;-78
2022/04/28 00:15:03;;;;;;;12.63;8.30;;;;;;;7.74;85.15;101900.91;677212;29;1830;-79
2022/04/28 00:15:24;;;;;;;12.70;7.82;;;;;;;7.75;85.70;101905.28;677708;29;1023;-79
2022/04/28 00:15:44;;;;;;;10.80;7.70;;;;;;;7.74;85.56;101900.91;680969;28;1453;-79
2022/04/28 00:16:04;;;;;;;11.77;8.40;;;;;;;7.72;84.88;101900.88;684826;28;1632;-79
2022/04/28 00:16:26;;;;;;;11.70;8.20;;;;;;;7.72;85.57;101915.63;685504;28;1590;-79
2022/04/28 00:16:46;;;;;;;13.30;8.30;;;;;;;7.71;86.00;101904.31;683075;28;1950;-79
2022/04/28 00:17:07;;;;;;;13.45;8.40;;;;;;;7.70;85.59;101905.19;679230;28;1580;-79
2022/04/28 00:17:27;;;;;;;12.90;8.50;;;;;;;7.67;86.49;101902.50;679833;28;1506;-79
2022/04/28 00:17:48;;;;;;;13.40;8.77;;;;;;;7.67;85.90;101905.09;678673;28;4303;-79
2022/04/28 00:18:09;;;;;;;13.15;8.38;;;;;;;7.65;86.09;101899.84;684908;28;3641;-79
2022/04/28 00:18:29;;;;;;;12.27;8.30;;;;;;;7.67;86.45;101900.78;683530;28;1938;-79
2022/04/28 00:18:49;;;;;;;11.43;7.83;;;;;;;7.66;86.25;101911.16;684293;28;1757;-78
2022/04/28 00:19:10;;;;;;;12.10;8.07;;;;;;;7.65;86.13;101910.25;680337;28;1842;-79
2022/04/28 00:19:30;;;;;;;11.98;8.55;;;;;;;7.65;86.08;101901.56;681387;28;1626;-78
2022/04/28 00:19:50;;;;;;;12.93;8.77;;;;;;;7.64;85.86;101902.41;680508;28;1754;-78
2022/04/28 00:20:11;;;;;;;12.98;8.18;;;;;;;7.62;85.68;101901.50;683221;28;1463;-78
2022/04/28 00:20:32;;;;;;;11.43;8.13;;;;;;;7.61;85.35;101902.31;679323;29;1806;-78
2022/04/28 00:20:52;;;;;;;11.20;8.10;;;;;;;7.60;85.96;101901.44;676953;29;4536;-79
2022/04/28 00:21:13;;;;;;;12.02;8.05;;;;;;;7.59;85.34;101910.09;677243;29;1436;-78
2022/04/28 00:21:33;;;;;;;11.10;8.43;;;;;;;7.57;85.68;101908.28;678327;29;1808;-79
2022/04/28 00:21:53;;;;;;;11.57;8.60;;;;;;;7.56;85.83;101906.50;680174;28;1451;-78
2022/04/28 00:22:14;;;;;;;13.90;8.30;;;;;;;7.55;86.11;101905.63;681280;28;1477;-79
2022/04/28 00:22:34;;;;;;;12.50;8.27;;;;;;;7.54;86.02;101903.00;680719;28;1688;-78
2022/04/28 00:22:55;;;;;;;12.15;8.20;;;;;;;7.53;86.01;101904.69;680190;28;1428;-79
2022/04/28 00:23:15;;;;;;;13.40;8.20;;;;;;;7.50;86.42;101902.03;683662;28;1610;-79
2022/04/28 00:23:35;;;;;;;11.23;8.57;;;;;;;7.49;86.78;101902.84;682725;28;1174;-79
2022/04/28 00:23:56;;;;;;;11.20;8.03;;;;;;;7.48;86.45;101904.59;683104;28;4449;-78
2022/04/28 00:24:16;;;;;;;11.07;8.00;;;;;;;7.47;86.73;101910.63;680826;28;1217;-79
2022/04/28 00:24:36;;;;;;;11.40;8.00;;;;;;;7.46;86.91;101911.47;683776;28;1665;-79
2022/04/28 00:24:57;;;;;;;12.47;8.20;;;;;;;7.45;86.50;101912.31;678104;28;1534;-78
2022/04/28 00:25:17;;;;;;;11.50;8.18;;;;;;;7.47;86.53;101907.16;682533;28;1462;-79
2022/04/28 00:25:37;;;;;;;11.67;8.20;;;;;;;7.46;86.60;101908.88;682149;28;1664;-79
2022/04/28 00:25:58;;;;;;;12.35;8.40;;;;;;;7.46;86.94;101914.09;673317;29;1447;-79
2022/04/28 00:26:20;;;;;;;12.77;8.30;;;;;;;7.46;87.33;101907.97;678204;29;1604;-79
2022/04/28 00:26:43;;;;;;;12.73;8.20;;;;;;;7.45;87.10;101911.44;679208;28;4319;-79
2022/04/28 00:27:03;;;;;;;13.38;8.43;;;;;;;7.44;87.32;101912.28;678923;29;2351;-78
2022/04/28 00:27:24;;;;;;;14.10;8.55;;;;;;;7.43;87.17;101910.50;681854;28;1663;-78
2022/04/28 00:27:44;;;;;;;13.00;8.23;;;;;;;7.43;87.23;101913.09;681846;28;1557;-78
2022/04/28 00:28:05;;;;;;;12.10;8.00;;;;;;;7.43;87.23;101913.09;676905;29;1365;-78
2022/04/28 00:28:25;;;;;;;11.77;8.30;;;;;;;7.43;87.54;101913.97;679000;29;1173;-79
2022/04/28 00:28:46;;;;;;;11.43;8.07;;;;;;;7.41;88.07;101910.47;679354;29;1641;-79
2022/04/28 00:29:06;;;;;;;12.75;8.05;;;;;;;7.41;87.96;101915.66;680178;28;1305;-78
2022/04/28 00:29:27;;;;;;;13.20;8.40;;;;;;;7.40;88.87;101908.69;675637;29;1627;-79
2022/04/28 00:29:47;;;;;;;12.35;8.52;;;;;;;7.39;91.57;101911.25;673841;29;4498;-78
2022/04/28 00:30:08;;;;;;;12.93;9.03;;;;;;;7.35;90.39;101905.06;673734;29;1873;-78
2022/04/28 00:30:29;;;;;;;13.40;8.55;;;;;;;7.34;89.75;101911.13;677969;29;1654;-78
2022/04/28 00:30:49;;;;;;;12.13;8.20;;;;;;;7.35;89.45;101910.28;679510;28;1498;-78
2022/04/28 00:31:10;;;;;;;12.07;8.03;;;;;;;7.35;89.72;101914.59;679906;28;1525;-79
2022/04/28 00:31:31;;;;;;;12.00;8.30;;;;;;;7.33;89.47;101910.22;683984;28;1638;-78
2022/04/28 00:31:51;;;;;;;11.15;8.02;;;;;;;7.32;88.73;101916.28;681878;28;1438;-79
2022/04/28 00:32:11;;;;;;;12.93;8.37;;;;;;;7.32;89.10;101918.00;682426;28;1615;-79
2022/04/28 00:32:32;;;;;;;12.37;8.47;;;;;;;7.33;88.26;101909.34;682662;28;1831;-79
2022/04/28 00:32:52;;;;;;;11.60;8.43;;;;;;;7.32;88.95;101916.28;684927;28;4294;-79
2022/04/28 00:33:13;;;;;;;12.20;8.40;;;;;;;7.31;88.78;101919.72;679010;28;1606;-79
2022/04/28 00:33:33;;;;;;;12.33;7.93;;;;;;;7.30;89.68;101911.88;678468;28;1628;-79
2022/04/28 00:33:55;;;;;;;12.05;8.25;;;;;;;7.26;89.99;101917.84;681093;28;1225;-79
2022/04/28 00:34:15;;;;;;;11.52;8.35;;;;;;;7.21;90.18;101914.22;677216;29;1566;-79
2022/04/28 00:34:36;;;;;;;10.83;7.70;;;;;;;7.19;89.77;101914.16;681538;28;1145;-78
2022/04/28 00:34:56;;;;;;;11.85;8.07;;;;;;;7.21;89.79;101916.81;680341;28;1762;-79
2022/04/28 00:35:17;;;;;;;12.43;8.20;;;;;;;7.22;89.85;101911.66;679659;29;1283;-79
2022/04/28 00:35:38;;;;;;;11.67;8.30;;;;;;;7.24;90.34;101914.28;677162;29;1735;-79
2022/04/28 00:35:59;;;;;;;12.07;8.38;;;;;;;7.24;89.90;101914.28;673201;29;4295;-79
2022/04/28 00:36:19;;;;;;;12.77;8.60;;;;;;;7.24;89.55;101915.19;679757;29;1402;-78
2022/04/28 00:36:39;;;;;;;11.17;8.20;;;;;;;7.24;89.64;101922.09;679015;29;1923;-78
2022/04/28 00:37:00;;;;;;;11.20;8.00;;;;;;;7.26;90.59;101912.63;679937;28;1598;-78
2022/04/28 00:37:21;;;;;;;12.80;8.07;;;;;;;7.23;89.59;101904.75;680121;28;1344;-78
2022/04/28 00:37:42;;;;;;;10.88;8.40;;;;;;;7.23;89.66;101909.94;684011;28;1588;-79
2022/04/28 00:38:02;;;;;;;10.38;8.15;;;;;;;7.22;89.91;101910.78;680525;28;1490;-79
2022/04/28 00:38:22;;;;;;;11.87;7.97;;;;;;;7.20;89.70;101910.72;683083;28;1472;-79
2022/04/28 00:38:43;;;;;;;12.55;8.27;;;;;;;7.23;92.62;101909.94;679014;29;4583;-79
2022/04/28 00:39:03;;;;;;;11.00;7.97;;;;;;;7.23;92.75;101905.63;681814;28;1270;-79
2022/04/28 00:39:24;;;;;;;10.98;8.00;;;;;;;7.23;92.41;101917.75;677711;29;1530;-79
2022/04/28 00:39:44;;;;;;;11.43;8.27;;;;;;;7.24;91.50;101907.38;671042;29;1619;-78
2022/04/28 00:40:06;;;;;;;12.73;8.40;;;;;;;7.26;91.21;101904.81;677547;29;1771;-78
2022/04/28 00:40:26;;;;;;;11.90;8.00;;;;;;;7.24;91.78;101903.88;680896;29;1801;-79
2022/04/28 00:40:47;;;;;;;12.95;8.23;;;;;;;7.24;91.30;101911.69;676422;29;1272;-78
2022/04/28 00:41:08;;;;;;;12.27;8.30;;;;;;;7.22;91.08;101915.97;674838;29;1446;-79
2022/04/28 00:41:28;;;;;;;11.77;8.02;;;;;;;7.20;90.69;101907.22;674545;29;2363;-78
2022/04/28 00:41:49;;;;;;;11.33;8.10;;;;;;;7.19;90.17;101913.28;675722;29;4319;-78
2022/04/28 00:42:11;;;;;;;11.38;8.13;;;;;;;7.19;90.00;101908.09;680280;29;1802;-79
2022/04/28 00:42:31;;;;;;;12.48;8.07;;;;;;;7.17;89.69;101910.63;679985;29;1760;-78
2022/04/28 00:42:51;;;;;;;12.07;8.07;;;;;;;7.15;89.53;101913.19;676900;29;1767;-79
2022/04/28 00:43:18;;;;;;;12.40;8.35;;;;;;;7.14;89.84;101908.84;673932;29;1329;-78
2022/04/28 00:43:53;;;;;;;11.70;8.20;;;;;;;7.11;90.34;101916.53;675121;29;1469;-79
2022/04/28 00:44:14;;;;;;;13.15;8.48;;;;;;;7.11;90.02;101905.25;679621;29;1192;-79
2022/04/28 00:44:34;;;;;;;12.07;8.53;;;;;;;7.11;89.81;101916.53;679627;28;1516;-79
2022/04/28 00:44:55;;;;;;;11.98;8.30;;;;;;;7.10;91.95;101908.69;684682;28;4307;-78
2022/04/28 00:45:15;;;;;;;12.20;8.47;;;;;;;7.07;91.70;101914.66;685372;28;1295;-78
2022/04/28 00:45:36;;;;;;;11.88;8.27;;;;;;;7.07;90.91;101917.28;681817;28;1591;-78
2022/04/28 00:45:57;;;;;;;11.77;8.30;;;;;;;7.08;91.27;101915.56;679081;28;1301;-79
2022/04/28 00:46:18;;;;;;;12.32;8.50;;;;;;;7.10;92.02;101912.19;674670;29;1790;-78
2022/04/28 00:46:40;;;;;;;11.52;8.10;;;;;;;7.10;92.82;101904.38;678686;29;1565;-79
2022/04/28 00:47:00;;;;;;;10.90;8.27;;;;;;;7.09;94.04;101910.41;679229;29;1125;-79
2022/04/28 00:47:22;;;;;;;11.33;8.80;;;;;;;7.09;94.27;101920.81;679754;29;1565;-78
2022/04/28 00:50:38;;;;;;;11.82;8.50;;;;;;;7.10;92.88;101914.78;681033;28;1753;-78
2022/04/28 00:51:01;;;;;;;11.55;8.23;;;;;;;7.04;92.63;101913.72;680489;28;4291;-79
2022/04/28 00:51:21;;;;;;;11.98;8.27;;;;;;;7.04;91.68;101908.53;680019;28;1780;-79
2022/04/28 00:51:42;;;;;;;11.97;8.10;;;;;;;7.01;91.77;101909.31;681517;28;1619;-78
2022/04/28 00:52:02;;;;;;;11.93;8.57;;;;;;;7.01;91.55;101918.84;682145;28;1437;-79
2022/04/28 00:52:24;;;;;;;12.88;8.70;;;;;;;7.00;91.98;101912.72;679831;29;1983;-78
2022/04/28 00:52:45;;;;;;;11.82;8.20;;;;;;;6.99;91.86;101913.56;681395;28;1258;-78
2022/04/28 00:53:08;;;;;;;11.00;7.97;;;;;;;6.98;91.58;101910.09;681015;28;1487;-78
2022/04/28 00:53:30;;;;;;;11.18;7.88;;;;;;;6.98;91.79;101909.22;681178;28;1236;-78
2022/04/28 00:53:51;;;;;;;12.13;7.78;;;;;;;7.06;91.06;101917.22;682856;28;4289;-79
2022/04/28 00:54:12;;;;;;;10.90;7.87;;;;;;;7.07;95.25;101914.66;678834;29;1302;-79
2022/04/28 00:54:33;;;;;;;12.35;8.60;;;;;;;7.06;94.53;101914.63;679272;28;1051;-79
2022/04/28 00:54:54;;;;;;;12.38;8.38;;;;;;;7.06;93.70;101914.63;677287;28;1832;-78
2022/04/28 00:55:15;;;;;;;12.48;8.18;;;;;;;7.00;94.76;101917.94;670724;29;1627;-79
2022/04/28 00:55:35;;;;;;;12.50;8.10;;;;;;;6.93;95.41;101916.84;671522;29;1367;-78
2022/04/28 00:55:59;;;;;;;11.88;8.35;;;;;;;6.87;94.92;101916.69;672628;29;893;-79
2022/04/28 00:56:20;;;;;;;12.60;8.18;;;;;;;6.86;94.09;101907.13;677358;29;1363;-78
2022/04/28 00:56:41;;;;;;;12.50;7.90;;;;;;;6.88;94.42;101915.84;677621;29;4354;-78
2022/04/28 00:57:02;;;;;;;12.38;8.35;;;;;;;6.87;93.82;101920.97;679597;28;1508;-79
2022/04/28 00:57:28;;;;;;;12.55;8.73;;;;;;;6.87;93.46;101916.69;674095;29;1370;-79
2022/04/28 00:57:50;;;;;;;11.65;8.32;;;;;;;6.88;93.02;101914.97;676643;29;1386;-79
2022/04/28 00:58:11;;;;;;;11.57;8.10;;;;;;;6.90;93.92;101916.78;678358;29;1600;-79
2022/04/28 00:58:32;;;;;;;11.43;8.27;;;;;;;6.90;94.25;101915.91;679816;29;1736;-78
2022/04/28 00:58:54;;;;;;;11.73;8.55;;;;;;;6.86;95.24;101917.50;679148;28;1272;-78
2022/04/28 00:59:17;;;;;;;13.43;8.50;;;;;;;6.85;94.98;101918.34;679694;29;1219;-78
2022/04/28 00:59:39;;;;;;;12.48;8.35;;;;;;;6.88;95.12;101922.75;678855;28;1132;-79
2022/04/28 00:59:59;;;;;;;12.68;8.50;;;;;;;6.93;94.67;101922.06;676992;29;4819;-79
2022/04/28 01:00:21;;;;;;;11.07;8.02;;;;;;;6.92;93.26;101917.72;683475;28;1459;-78
2022/04/28 01:00:41;;;;;;;10.55;7.75;;;;;;;6.94;93.36;101922.97;682122;28;1815;-79
2022/04/28 01:01:04;;;;;;;11.90;8.50;;;;;;;6.92;93.24;101916.81;683231;28;1696;-79
2022/04/28 01:01:24;;;;;;;13.38;8.20;;;;;;;6.92;95.07;101917.72;680271;29;1479;-79
2022/04/28 01:01:45;;;;;;;13.25;8.65;;;;;;;6.91;97.35;101925.44;676918;29;1441;-78
2022/04/28 01:02:06;;;;;;;12.63;8.80;;;;;;;6.86;96.84;101927.91;676714;29;1525;-79
2022/04/28 01:02:26;;;;;;;13.73;8.43;;;;;;;6.84;96.70;101923.50;678580;29;1477;-78
2022/04/28 01:02:47;;;;;;;13.07;8.63;;;;;;;6.81;96.35;101922.59;679404;28;4337;-78
2022/04/28 01:03:09;;;;;;;11.93;8.52;;;;;;;6.79;95.60;101912.97;681959;28;1828;-78
2022/04/28 01:03:30;;;;;;;12.23;8.43;;;;;;;6.79;95.86;101915.56;678612;29;1457;-78
2022/04/28 01:03:54;;;;;;;10.85;7.85;;;;;;;6.79;95.28;101920.75;679043;28;1295;-79
2022/04/28 01:04:14;;;;;;;9.80;7.90;;;;;;;6.78;96.12;101917.28;681126;28;1838;-79
2022/04/28 01:04:34;;;;;;;11.45;8.23;;;;;;;6.78;95.19;101922.50;684852;28;1466;-78
2022/04/28 01:04:55;;;;;;;10.83;8.57;;;;;;;6.76;95.24;101918.94;679679;28;1523;-79
2022/04/28 01:05:16;;;;;;;12.13;8.35;;;;;;;6.74;95.58;101917.13;682635;28;1518;-78
2022/04/28 01:05:36;;;;;;;12.10;8.32;;;;;;;6.74;95.14;101910.25;681233;28;1726;-78
2022/04/28 01:05:57;;;;;;;12.07;8.60;;;;;;;6.70;95.02;101910.97;679463;28;4284;-79
2022/04/28 01:06:18;;;;;;;13.20;8.82;;;;;;;6.70;95.40;101918.78;682103;28;1388;-79
2022/04/28 01:06:41;;;;;;;12.50;8.60;;;;;;;6.73;95.34;101916.25;682545;28;928;-78
2022/04/28 01:07:02;;;;;;;11.77;8.57;;;;;;;6.81;94.68;101919.09;680884;28;1384;-79
2022/04/28 01:07:22;;;;;;;12.65;8.20;;;;;;;6.85;94.57;101918.34;677691;29;1362;-78
2022/04/28 01:07:43;;;;;;;12.23;8.20;;;;;;;6.87;96.20;101911.50;678342;28;1772;-79
2022/04/28 01:08:04;;;;;;;12.30;8.45;;;;;;;6.85;97.47;101913.13;682832;28;1446;-79
2022/04/28 01:08:26;;;;;;;11.52;8.48;;;;;;;6.81;97.97;101914.78;679931;29;1661;-79
2022/04/28 01:08:47;;;;;;;12.52;8.52;;;;;;;6.78;97.44;101914.69;678639;28;4597;-79
2022/04/28 01:09:07;;;;;;;11.10;8.40;;;;;;;6.80;96.67;101915.59;679829;29;1360;-78
2022/04/28 01:09:27;;;;;;;11.35;7.97;;;;;;;6.80;96.12;101915.59;680160;29;1842;-79
2022/04/28 01:09:51;;;;;;;11.47;7.83;;;;;;;6.80;95.18;101918.22;674615;29;1297;-78
2022/04/28 01:10:13;;;;;;;10.75;8.05;;;;;;;6.81;95.47;101924.28;675371;29;1517;-79
2022/04/28 01:10:36;;;;;;;10.93;8.07;;;;;;;6.75;97.72;101919.78;673950;29;1694;-78
2022/04/28 01:10:57;;;;;;;13.35;8.60;;;;;;;6.76;97.42;101923.28;677690;28;1259;-78
2022/04/28 01:11:19;;;;;;;11.68;8.38;;;;;;;6.79;96.24;101919.03;682001;28;1693;-78
2022/04/28 01:11:42;;;;;;;11.73;8.07;;;;;;;6.78;95.64;101927.69;677408;29;4324;-79
2022/04/28 01:12:15;;;;;;;12.25;8.60;;;;;;;6.76;95.46;101918.94;676691;29;1435;-78
2022/04/28 01:12:37;;;;;;;10.90;8.15;;;;;;;6.72;97.64;101914.50;674140;29;1289;-78
2022/04/28 01:12:58;;;;;;;13.73;9.13;;;;;;;6.69;98.13;101926.50;677360;29;1587;-78
2022/04/28 01:13:19;;;;;;;13.43;8.88;;;;;;;6.69;97.59;101926.50;678606;29;1427;-78
2022/04/28 01:13:46;;;;;;;12.05;8.68;;;;;;;6.68;96.55;101916.97;682446;28;1539;-79
2022/04/28 01:14:15;;;;;;;11.80;8.32;;;;;;;6.73;95.00;101923.16;681600;28;1486;-79
2022/04/28 01:14:44;;;;;;;13.13;8.70;;;;;;;6.70;95.46;101925.66;681033;28;4329;-79
2022/04/28 01:15:05;;;;;;;12.95;8.35;;;;;;;6.68;95.23;101928.22;680697;28;1619;-79
2022/04/28 01:15:25;;;;;;;12.27;8.32;;;;;;;6.68;94.66;101920.44;676667;29;1292;-79
2022/04/28 01:15:48;;;;;;;11.68;8.32;;;;;;;6.65;95.21;101921.22;679960;28;1624;-79
2022/04/28 01:16:09;;;;;;;11.57;8.45;;;;;;;6.64;94.50;101918.56;677525;29;2389;-79
2022/04/28 01:16:30;;;;;;;12.75;8.80;;;;;;;6.66;94.45;101924.72;679637;29;1796;-79
2022/04/28 01:16:50;;;;;;;12.20;8.60;;;;;;;6.66;96.04;101922.09;679356;28;1958;-78
2022/04/28 01:17:12;;;;;;;11.68;8.45;;;;;;;6.62;97.05;101923.72;681041;28;1559;-78
2022/04/28 01:17:34;;;;;;;13.43;8.45;;;;;;;6.59;97.46;101921.03;680158;28;1329;-79
2022/04/28 01:17:57;;;;;;;13.65;8.40;;;;;;;6.58;97.90;101920.97;680294;28;4495;-79
2022/04/28 01:18:18;;;;;;;14.77;8.77;;;;;;;6.56;97.76;101925.22;680394;29;1805;-78
2022/04/28 01:18:39;;;;;;;13.02;8.65;;;;;;;6.56;98.10;101922.63;679927;28;1523;-78
2022/04/28 01:19:00;;;;;;;12.57;8.57;;;;;;;6.58;97.49;101918.38;679950;28;1720;-78
2022/04/28 01:19:20;;;;;;;11.90;8.15;;;;;;;6.55;96.87;101921.75;684435;28;1686;-78
2022/04/28 01:19:41;;;;;;;12.90;8.50;;;;;;;6.56;97.30;101925.22;684842;28;1320;-79
2022/04/28 01:20:02;;;;;;;12.17;8.50;;;;;;;6.54;96.40;101919.13;680613;28;1754;-78
2022/04/28 01:20:25;;;;;;;12.40;8.70;;;;;;;6.52;96.53;101919.06;680454;29;1491;-78
2022/04/28 01:20:46;;;;;;;12.47;8.70;;;;;;;6.52;96.76;101920.78;678799;29;4377;-78
2022/04/28 01:21:07;;;;;;;12.95;8.60;;;;;;;6.52;96.55;101919.06;676435;29;1422;-79
2022/04/28 01:21:30;;;;;;;11.77;8.23;;;;;;;6.54;96.28;101921.72;673924;29;1638;-79
2022/04/28 01:21:55;;;;;;;11.75;8.30;;;;;;;6.49;96.89;101918.94;676066;29;1383;-79
2022/04/28 01:22:16;;;;;;;11.93;8.60;;;;;;;6.43;97.40;101916.16;676528;29;1668;-79
2022/04/28 01:22:37;;;;;;;11.95;8.70;;;;;;;6.40;97.80;101929.94;679157;28;1462;-79
2022/04/28 01:23:00;;;;;;;11.70;8.55;;;;;;;6.37;98.58;101913.34;679906;28;1490;-79
2022/04/28 01:23:20;;;;;;;12.53;8.43;;;;;;;6.35;98.51;101915.91;680956;28;1622;-79
2022/04/28 01:23:41;;;;;;;12.88;8.80;;;;;;;6.34;99.08;101919.38;680361;28;4613;-79
2022/04/28 01:24:03;;;;;;;11.63;8.60;;;;;;;6.38;98.70;101917.72;683462;28;1601;-79
2022/04/28 01:24:23;;;;;;;12.60;8.15;;;;;;;6.41;97.97;101917.81;679356;28;1660;-78
2022/04/28 01:24:44;;;;;;;13.43;8.80;;;;;;;6.41;98.07;101923.91;678476;29;1624;-78
2022/04/28 01:25:08;;;;;;;15.10;8.80;;;;;;;6.41;98.22;101926.50;680765;28;1456;-79
2022/04/28 01:25:28;;;;;;;15.65;8.95;;;;;;;6.40;98.29;101921.28;681605;28;1679;-78
2022/04/28 01:25:49;;;;;;;14.10;9.03;;;;;;;6.38;97.87;101923.78;683538;28;1623;-78
2022/04/28 01:26:09;;;;;;;14.27;9.18;;;;;;;6.31;99.76;101919.25;681865;28;1668;-78
2022/04/28 01:26:33;;;;;;;14.43;9.47;;;;;;;6.30;99.06;101930.47;677642;29;1733;-78
2022/04/28 01:26:56;;;;;;;13.63;8.73;;;;;;;6.26;99.73;101920.81;676433;28;4319;-79
2022/04/28 01:27:18;;;;;;;14.38;9.20;;;;;;;6.24;100.00;101925.06;679738;28;1433;-78
2022/04/28 01:27:39;;;;;;;12.25;8.65;;;;;;;6.24;100.00;101918.16;678456;29;1387;-78
2022/04/28 01:28:00;;;;;;;16.20;8.90;;;;;;;6.24;100.00;101925.06;673274;29;1547;-78
2022/04/28 01:28:20;;;;;;;13.27;9.00;;;;;;;6.21;100.00;101922.38;676831;29;1659;-78
2022/04/28 01:28:41;;;;;;;12.15;8.80;;;;;;;6.20;99.98;101926.66;678254;28;1363;-78
2022/04/28 01:29:02;;;;;;;13.45;9.10;;;;;;;6.23;100.00;101920.69;676134;28;1327;-78
2022/04/28 01:29:22;;;;;;;13.20;8.93;;;;;;;6.22;99.84;101929.34;679008;29;1690;-79
2022/04/28 01:29:43;;;;;;;13.70;8.90;;;;;;;6.23;99.25;101931.97;683648;28;4618;-79
2022/04/28 01:30:15;;;;;;;14.63;9.07;;;;;;;6.23;99.45;101925.88;677738;28;1496;-79
2022/04/28 01:30:50;;;;;;;12.35;8.65;;;;;;;6.20;98.75;101924.06;682644;28;1248;-78
2022/04/28 01:31:13;;;;;;;13.05;8.48;;;;;;;6.21;100.00;101930.16;678433;28;1611;-79
2022/04/28 01:31:39;;;;;;;12.63;8.70;;;;;;;6.21;100.00;101920.66;681322;28;1763;-79
2022/04/28 01:32:02;;;;;;;12.35;8.73;;;;;;;6.21;100.00;101923.25;682750;28;1467;-79
2022/04/28 01:32:24;;;;;;;12.40;8.50;;;;;;;6.25;99.67;101932.03;681588;28;1317;-79
2022/04/28 01:32:44;;;;;;;12.90;8.57;;;;;;;6.20;100.00;101920.59;684357;28;4325;-78
2022/04/28 01:33:05;;;;;;;12.98;8.65;;;;;;;6.21;99.35;101922.38;681642;28;1599;-78
2022/04/28 01:33:26;;;;;;;12.82;8.63;;;;;;;6.21;99.25;101927.56;679151;29;1710;-78
2022/04/28 01:33:47;;;;;;;11.63;8.48;;;;;;;6.20;99.98;101920.59;676583;29;1775;-78
2022/04/28 01:34:10;;;;;;;12.52;8.90;;;;;;;6.18;100.00;101927.47;670101;29;1466;-78
2022/04/28 01:34:31;;;;;;;13.38;9.05;;;;;;;6.17;100.00;101923.97;676176;29;1859;-78
2022/04/28 01:34:52;;;;;;;13.20;8.90;;;;;;;6.17;100.00;101928.28;680760;28;1923;-79
2022/04/28 01:35:13;;;;;;;13.82;8.95;;;;;;;6.17;100.00;101929.16;679572;28;1839;-78
2022/04/28 01:35:33;;;;;;;12.37;8.80;;;;;;;6.19;99.44;101931.81;679871;28;1821;-79
2022/04/28 01:35:54;;;;;;;12.57;8.70;;;;;;;6.18;99.42;101928.34;681321;28;4480;-79
2022/04/28 01:36:15;;;;;;;12.25;8.70;;;;;;;6.19;99.62;101931.81;677020;29;1442;-79
2022/04/28 01:36:35;;;;;;;11.98;9.05;;;;;;;6.18;99.88;101924.88;677310;29;1969;-79
2022/04/28 01:36:56;;;;;;;12.70;9.20;;;;;;;6.16;99.65;101931.72;680603;28;1809;-78
2022/04/28 01:37:16;;;;;;;13.48;8.82;;;;;;;6.16;100.00;101926.53;676644;29;1460;-78
2022/04/28 01:37:37;;;;;;;13.70;9.10;;;;;;;6.19;100.00;101929.22;681596;28;1368;-78
2022/04/28 01:38:02;;;;;;;13.00;8.95;;;;;;;6.17;100.00;101930.91;679625;28;1531;-78
2022/04/28 01:38:24;;;;;;;13.30;8.82;;;;;;;6.16;100.00;101929.13;679537;29;1427;-78
2022/04/28 01:38:45;;;;;;;12.50;9.05;;;;;;;6.16;100.00;101930.00;678752;28;4357;-78
2022/04/28 01:39:09;;;;;;;13.00;9.13;;;;;;;6.18;100.00;101928.34;680966;28;1606;-79
2022/04/28 01:39:31;;;;;;;13.52;9.18;;;;;;;6.11;100.00;101935.03;678890;29;1761;-79
2022/04/28 01:39:53;;;;;;;13.75;8.90;;;;;;;6.12;100.00;101930.75;681127;28;1386;-78
2022/04/28 01:40:14;;;;;;;13.30;8.52;;;;;;;6.10;100.00;101930.66;683129;28;1499;-78
2022/04/28 01:40:35;;;;;;;13.05;9.00;;;;;;;6.07;100.00;101927.97;678853;28;4676;-78
2022/04/28 01:40:56;;;;;;;13.10;9.27;;;;;;;6.03;100.00;101938.22;682110;28;1523;-79
2022/04/28 01:41:17;;;;;;;12.70;8.85;;;;;;;6.03;100.00;101928.69;674835;29;1696;-78
2022/04/28 01:41:37;;;;;;;12.75;8.85;;;;;;;6.04;100.00;101927.00;677283;29;1610;-79
2022/04/28 01:41:59;;;;;;;12.23;8.38;;;;;;;6.10;100.00;101929.78;676121;29;4703;-79
2022/04/28 01:42:19;;;;;;;11.23;8.45;;;;;;;6.13;100.00;101925.59;676485;29;1704;-78
2022/04/28 01:42:41;;;;;;;11.70;8.73;;;;;;;6.17;100.00;101928.28;676462;29;1547;-78
2022/04/28 01:43:02;;;;;;;12.88;8.75;;;;;;;6.18;100.00;101932.66;677445;29;1377;-78
2022/04/28 01:43:23;;;;;;;13.27;8.70;;;;;;;6.20;99.51;101933.59;679520;28;1715;-78
2022/04/28 01:43:45;;;;;;;11.77;8.60;;;;;;;6.23;98.50;101933.69;679311;28;1830;-79
2022/04/28 01:44:07;;;;;;;12.05;8.52;;;;;;;6.18;100.00;101930.06;679298;28;1579;-79
2022/04/28 01:44:27;;;;;;;12.70;8.63;;;;;;;6.09;100.00;101933.22;678947;29;2142;-79